< < Back
Terminal Aerodrome Forecast


Current Version              Previous Versions:   1  2  3  4  5  6  7  8  9  

Terminal Aerodrome Forecast

317
FTUS42 KILM 241130
TAFFLO
TAF
KFLO 241130Z 2412/2512 24005KT P6SM SCT035
     FM241800 20007KT P6SM SCT040
     FM250100 20003KT P6SM SKC=



Latest METAR

174
SAUS70 KWBC 242200 RRA
MTRFLO
METAR KFLO 242153Z 18006KT 10SM CLR 35/22 A2999 RMK AO2 SLP152
T03500217


USA.gov is the U.S. government's official web portal to all federal, state and local government web resources and services.